Impacts METAR Board
IDs:

KPHL - Philadelphia Intl, PA, US

Updated at: 2300 UTC 19 Jul 2018
Potential Impact None Slight Moderate High
Time 19/11Z 19/12Z 19/13Z 19/14Z 19/15Z 19/16Z 19/17Z 19/18Z 19/19Z 19/20Z 19/21Z 19/22Z 19/23Z
Temp66 69 71 74 79 80 82 83 86 83 84 86 84
Dewpt50 48 50 50 52 49 48 48 47 45 45 44 44
Altim30.07 30.08 30.10 30.11 30.11 30.11 30.09 30.09 30.08 30.07 30.07 30.06 30.06
VIS10 10 10 10 10 10 10 10 10 10 10 10 10
CIG-- -- -- -- -- -- -- -- -- -- -- -- --
CoverCLRCLRCLRCLRFEWFEWFEWFEWFEWFEWFEWFEWFEW
FltCatVFRVFRVFRVFRVFRVFRVFRVFRVFRVFRVFRVFRVFR
WX--------------------------
WDir350340350300908011011020021000
WSpd6 10 7 7 3 7 5 7 7 5 3 0 4
WGst-- -- -- -- -- -- -- -- -- -- -- -- --
Raw hourly METARs
KPHL 191054Z 35006KT 10SM CLR 19/10 A3007 RMK AO2 SLP181 T01890100 $
KPHL 191154Z 34010KT 10SM CLR 21/09 A3008 RMK AO2 SLP186 T02060089 10217 20178 53009 $
KPHL 191254Z 35007KT 10SM CLR 22/10 A3010 RMK AO2 SLP192 T02170100
KPHL 191354Z 03007KT 10SM CLR 23/10 A3011 RMK AO2 SLP194 T02330100
KPHL 191454Z VRB03KT 10SM FEW060 FEW300 26/11 A3011 RMK AO2 SLP196 T02610111 51010 $
KPHL 191554Z 09007KT 10SM FEW065 FEW300 27/09 A3011 RMK AO2 SLP194 T02670094 $
KPHL 191654Z 08005KT 10SM FEW070 FEW300 28/09 A3009 RMK AO2 SLP190 T02780089 $
KPHL 191754Z 11007KT 10SM FEW070 FEW300 28/09 A3009 RMK AO2 SLP187 T02830089 10289 20206 58009
KPHL 191854Z 11007KT 10SM FEW070 FEW300 30/08 A3008 RMK AO2 SLP184 T03000083
KPHL 191954Z 20005KT 10SM FEW070 FEW300 28/07 A3007 RMK AO2 SLP183 T02830072
KPHL 192054Z 21003KT 10SM FEW060 FEW300 29/07 A3007 RMK AO2 SLP181 T02890072 56006
KPHL 192154Z 00000KT 10SM FEW060 FEW300 30/07 A3006 RMK AO2 SLP178 T03000067
KPHL 192254Z VRB04KT 10SM FEW060 FEW300 29/07 A3006 RMK AO2 SLP177 T02890067 $



Page loaded:  23:04 UTC  |   04:04 PM Pacific  |   05:04 PM Mountain  |   06:04 PM Central  |   07:04 PM Eastern

 

ADVISORIES

FORECASTS

FORECASTS

OBSERVATIONS

USER TOOLS

ABOUT US